Time;durP1;ratioP1;P1;durP2;ratioP2;P2;SDS_P1;SDS_P2;PMS_P1;PMS_P2;Temp;Humidity;BMP_temperature;BMP_pressure;BME280_temperature;BME280_humidity;BME280_pressure;Samples;Min_cycle;Max_cycle;Signal;HPM_P1;HPM_P2
2023/03/19 00:02:16;;;;;;;;;;;17.30;51.30;;;;;;5107664;28;20402;-77
2023/03/19 00:04:42;;;;;;;;;;;17.30;51.20;;;;;;5097821;28;19978;-77
2023/03/19 00:07:07;;;;;;;;;;;17.30;51.20;;;;;;5093980;28;19920;-76
2023/03/19 00:09:33;;;;;;;;;;;17.30;51.20;;;;;;5094815;28;19926;-75
2023/03/19 00:11:58;;;;;;;;;;;17.30;51.20;;;;;;5094075;28;19986;-75
2023/03/19 00:14:24;;;;;;;;;;;17.30;51.30;;;;;;5094143;28;19924;-74
2023/03/19 00:16:49;;;;;;;;;;;17.30;51.30;;;;;;5094159;28;20395;-72
2023/03/19 00:19:15;;;;;;;;;;;17.30;51.30;;;;;;5094073;28;20436;-75
2023/03/19 00:21:41;;;;;;;;;;;17.30;51.30;;;;;;5093693;28;19920;-75
2023/03/19 00:24:07;;;;;;;;;;;17.40;51.40;;;;;;5094109;28;19920;-75
2023/03/19 00:26:33;;;;;;;;;;;17.30;51.30;;;;;;5093792;28;19966;-74
2023/03/19 00:28:59;;;;;;;;;;;17.30;51.30;;;;;;5093554;28;19974;-74
2023/03/19 00:31:26;;;;;;;;;;;17.30;51.30;;;;;;5093884;28;19920;-76
2023/03/19 00:33:52;;;;;;;;;;;17.30;51.40;;;;;;5093384;28;19931;-75
2023/03/19 00:36:17;;;;;;;;;;;17.30;51.30;;;;;;5093473;28;20380;-76
2023/03/19 00:38:43;;;;;;;;;;;17.30;51.30;;;;;;5092874;28;19966;-76
2023/03/19 00:41:09;;;;;;;;;;;17.20;51.30;;;;;;5093416;28;19920;-78
2023/03/19 00:43:35;;;;;;;;;;;17.20;51.40;;;;;;5094217;28;20286;-75
2023/03/19 00:46:01;;;;;;;;;;;17.20;51.30;;;;;;5093381;28;20247;-74
2023/03/19 00:48:26;;;;;;;;;;;17.30;51.40;;;;;;5093227;28;19920;-75
2023/03/19 00:50:52;;;;;;;;;;;17.20;51.30;;;;;;5127384;27;19928;-72
2023/03/19 00:53:17;;;;;;;;;;;17.20;51.40;;;;;;5107881;28;19928;-76
2023/03/19 00:55:43;;;;;;;;;;;17.20;51.30;;;;;;5114635;28;20007;-74
2023/03/19 00:58:09;;;;;;;;;;;17.20;51.30;;;;;;5096645;28;19924;-74
2023/03/19 01:00:35;;;;;;;;;;;17.20;51.40;;;;;;5114774;28;19927;-74
2023/03/19 01:03:01;;;;;;;;;;;17.20;51.40;;;;;;5096394;28;19924;-75
2023/03/19 01:05:26;;;;;;;;;;;17.20;51.40;;;;;;5096187;28;20286;-74
2023/03/19 01:07:51;;;;;;;;;;;17.20;51.40;;;;;;5095539;28;20006;-70
2023/03/19 01:10:18;;;;;;;;;;;17.20;51.40;;;;;;5096187;28;20301;-71
2023/03/19 01:12:44;;;;;;;;;;;17.20;51.40;;;;;;5096169;28;19924;-75
2023/03/19 01:15:09;;;;;;;;;;;17.20;51.40;;;;;;5113703;28;19919;-74
2023/03/19 01:17:35;;;;;;;;;;;17.20;51.40;;;;;;5113924;28;19947;-76
2023/03/19 01:20:00;;;;;;;;;;;17.20;51.40;;;;;;5095980;28;19920;-71
2023/03/19 01:22:26;;;;;;;;;;;17.20;51.50;;;;;;5095521;28;19990;-75
2023/03/19 01:24:52;;;;;;;;;;;17.30;51.50;;;;;;5114064;28;19920;-72
2023/03/19 01:27:17;;;;;;;;;;;17.20;51.40;;;;;;5095912;28;20004;-76
2023/03/19 01:29:43;;;;;;;;;;;17.20;51.50;;;;;;5114132;28;19980;-73
2023/03/19 01:32:08;;;;;;;;;;;17.20;51.40;;;;;;5114041;28;19924;-74
2023/03/19 01:34:34;;;;;;;;;;;17.10;51.40;;;;;;5095934;28;19923;-75
2023/03/19 01:37:03;;;;;;;;;;;17.20;51.50;;;;;;5096022;28;20379;-75
2023/03/19 01:39:28;;;;;;;;;;;17.10;51.40;;;;;;5094715;28;20290;-75
2023/03/19 01:41:54;;;;;;;;;;;17.10;51.40;;;;;;5095486;28;20003;-75
2023/03/19 01:44:22;;;;;;;;;;;17.10;51.40;;;;;;5096085;28;19941;-76
2023/03/19 01:46:47;;;;;;;;;;;17.10;51.40;;;;;;5095855;28;19920;-74
2023/03/19 01:49:13;;;;;;;;;;;17.10;51.40;;;;;;5095438;28;20416;-77
2023/03/19 01:51:40;;;;;;;;;;;17.10;51.40;;;;;;5129441;27;20033;-74
2023/03/19 01:54:12;;;;;;;;;;;17.10;51.50;;;;;;5094943;28;19993;-74
2023/03/19 01:56:38;;;;;;;;;;;17.10;51.40;;;;;;5113180;28;19920;-75
2023/03/19 01:59:08;;;;;;;;;;;17.10;51.50;;;;;;5095190;28;19923;-76
2023/03/19 02:01:36;;;;;;;;;;;17.10;51.40;;;;;;5095412;28;20120;-75
2023/03/19 02:04:02;;;;;;;;;;;17.10;51.40;;;;;;5095542;28;19926;-76
2023/03/19 02:06:29;;;;;;;;;;;17.10;51.50;;;;;;5095160;28;19920;-74
2023/03/19 02:08:55;;;;;;;;;;;17.10;51.50;;;;;;5112466;28;20309;-75
2023/03/19 02:11:21;;;;;;;;;;;17.10;51.50;;;;;;5094817;28;19920;-75
2023/03/19 02:13:47;;;;;;;;;;;17.10;51.50;;;;;;5113370;28;19989;-75
2023/03/19 02:16:13;;;;;;;;;;;17.10;51.50;;;;;;5095037;28;19966;-75
2023/03/19 02:18:39;;;;;;;;;;;17.10;51.50;;;;;;5078329;28;19920;-77
2023/03/19 02:21:07;;;;;;;;;;;17.10;51.50;;;;;;5095091;28;19923;-74
2023/03/19 02:23:40;;;;;;;;;;;17.00;51.50;;;;;;5098478;22;19925;-66
2023/03/19 02:28:48;;;;;;;;;;;17.00;51.50;;;;;;5089846;28;20379;-66
2023/03/19 02:31:14;;;;;;;;;;;17.10;51.50;;;;;;5088508;28;20437;-66
2023/03/19 02:33:40;;;;;;;;;;;17.00;51.50;;;;;;5088752;28;20002;-66
2023/03/19 02:36:09;;;;;;;;;;;17.00;51.50;;;;;;5088482;28;20375;-66
2023/03/19 02:38:35;;;;;;;;;;;17.10;51.50;;;;;;5087931;28;19964;-66
2023/03/19 02:41:03;;;;;;;;;;;17.00;51.50;;;;;;5088466;28;20410;-66
2023/03/19 02:43:29;;;;;;;;;;;17.00;51.50;;;;;;5087845;28;20376;-66
2023/03/19 02:45:55;;;;;;;;;;;17.00;51.50;;;;;;5089452;28;19920;-66
2023/03/19 02:48:20;;;;;;;;;;;17.00;51.50;;;;;;5089376;28;19924;-66
2023/03/19 02:50:46;;;;;;;;;;;17.00;51.50;;;;;;5088251;28;19921;-66
2023/03/19 02:53:14;;;;;;;;;;;17.00;51.50;;;;;;5088638;28;19920;-66
2023/03/19 02:55:40;;;;;;;;;;;17.00;51.50;;;;;;5089382;28;20341;-66
2023/03/19 02:58:06;;;;;;;;;;;17.00;51.50;;;;;;5089240;28;19924;-66
2023/03/19 03:00:31;;;;;;;;;;;17.00;51.50;;;;;;5087884;28;20293;-66
2023/03/19 03:02:57;;;;;;;;;;;17.00;51.50;;;;;;5089227;28;19924;-66
2023/03/19 03:05:23;;;;;;;;;;;17.00;51.50;;;;;;5088234;28;20015;-67
2023/03/19 03:07:48;;;;;;;;;;;17.00;52.30;;;;;;5087296;28;19928;-65
2023/03/19 03:10:14;;;;;;;;;;;17.00;51.50;;;;;;5088993;28;19920;-66
2023/03/19 03:12:40;;;;;;;;;;;17.00;51.50;;;;;;5087855;28;19921;-66
2023/03/19 03:15:07;;;;;;;;;;;17.00;51.60;;;;;;5087962;28;19920;-66
2023/03/19 03:17:35;;;;;;;;;;;16.90;51.60;;;;;;5087753;28;19920;-66
2023/03/19 03:20:00;;;;;;;;;;;17.00;51.70;;;;;;5087664;28;19928;-66
2023/03/19 03:22:26;;;;;;;;;;;17.00;51.60;;;;;;5086963;28;19921;-66
2023/03/19 03:24:51;;;;;;;;;;;16.90;51.60;;;;;;5088859;28;20279;-66
2023/03/19 03:27:17;;;;;;;;;;;16.90;51.60;;;;;;5096820;28;19947;-66
2023/03/19 03:29:42;;;;;;;;;;;16.90;51.60;;;;;;5091128;28;19927;-66
2023/03/19 03:32:08;;;;;;;;;;;16.90;51.60;;;;;;5090868;28;19981;-66
2023/03/19 03:34:34;;;;;;;;;;;16.90;51.60;;;;;;5090115;28;19920;-66
2023/03/19 03:36:59;;;;;;;;;;;16.90;51.50;;;;;;5108786;28;19923;-66
2023/03/19 03:39:25;;;;;;;;;;;16.90;51.60;;;;;;5080180;28;19926;-66
2023/03/19 03:41:51;;;;;;;;;;;16.90;51.60;;;;;;5077187;28;20007;-66
2023/03/19 03:44:17;;;;;;;;;;;16.90;51.60;;;;;;5077092;28;19920;-66
2023/03/19 03:46:42;;;;;;;;;;;16.90;51.60;;;;;;5095109;28;19924;-66
2023/03/19 03:49:08;;;;;;;;;;;16.90;51.60;;;;;;5076987;28;20367;-66
2023/03/19 03:51:34;;;;;;;;;;;16.90;51.60;;;;;;5076885;28;19934;-66
2023/03/19 03:54:00;;;;;;;;;;;16.90;51.60;;;;;;5076443;28;19920;-66
2023/03/19 03:56:25;;;;;;;;;;;16.90;51.60;;;;;;5094797;28;19965;-66
2023/03/19 03:58:51;;;;;;;;;;;16.90;51.60;;;;;;5094938;28;20292;-66
2023/03/19 04:01:17;;;;;;;;;;;16.90;51.60;;;;;;5077082;28;20007;-66
2023/03/19 04:03:43;;;;;;;;;;;16.90;51.60;;;;;;5095009;28;19920;-66
2023/03/19 04:06:13;;;;;;;;;;;16.90;51.60;;;;;;5094802;28;19931;-66
2023/03/19 04:08:39;;;;;;;;;;;16.90;51.60;;;;;;5094098;28;19928;-66
2023/03/19 04:11:06;;;;;;;;;;;16.90;51.60;;;;;;5076682;28;19942;-66
2023/03/19 04:13:35;;;;;;;;;;;16.90;51.60;;;;;;5076965;28;20325;-66
2023/03/19 04:16:03;;;;;;;;;;;16.90;51.60;;;;;;5094716;28;19982;-66
2023/03/19 04:18:28;;;;;;;;;;;16.80;51.60;;;;;;5076851;28;19985;-66
2023/03/19 04:20:54;;;;;;;;;;;16.80;51.60;;;;;;5094534;28;20379;-66
2023/03/19 04:23:19;;;;;;;;;;;16.80;51.60;;;;;;5093801;28;19920;-66
2023/03/19 04:25:45;;;;;;;;;;;16.80;51.60;;;;;;5094146;28;19956;-66
2023/03/19 04:28:11;;;;;;;;;;;16.80;51.60;;;;;;5076144;28;20350;-66
2023/03/19 04:30:39;;;;;;;;;;;16.90;51.60;;;;;;5094526;28;20182;-66
2023/03/19 04:33:05;;;;;;;;;;;16.80;51.60;;;;;;5076429;28;20003;-66
2023/03/19 04:35:31;;;;;;;;;;;16.80;51.60;;;;;;5094232;28;20018;-66
2023/03/19 04:37:56;;;;;;;;;;;16.80;51.60;;;;;;5093495;28;19959;-66
2023/03/19 04:40:22;;;;;;;;;;;16.80;51.60;;;;;;5093974;28;19985;-66
2023/03/19 04:42:50;;;;;;;;;;;16.80;51.60;;;;;;5094130;28;19927;-66
2023/03/19 04:45:16;;;;;;;;;;;16.90;51.70;;;;;;5076170;28;19984;-65
2023/03/19 04:47:41;;;;;;;;;;;16.80;51.60;;;;;;5093922;28;20371;-66
2023/03/19 04:50:08;;;;;;;;;;;16.80;51.70;;;;;;5093134;28;19947;-66
2023/03/19 04:52:36;;;;;;;;;;;16.90;51.60;;;;;;5075304;28;19928;-66
2023/03/19 04:55:02;;;;;;;;;;;16.80;51.60;;;;;;5075992;28;19920;-65
2023/03/19 04:57:27;;;;;;;;;;;16.80;51.60;;;;;;5075935;28;19920;-66
2023/03/19 04:59:53;;;;;;;;;;;16.80;51.60;;;;;;5075917;28;19985;-66
2023/03/19 05:02:18;;;;;;;;;;;16.80;51.60;;;;;;5075810;28;20370;-66
2023/03/19 05:04:44;;;;;;;;;;;16.80;51.60;;;;;;5075869;28;19974;-66
2023/03/19 05:07:09;;;;;;;;;;;16.80;51.60;;;;;;5093536;28;20276;-66
2023/03/19 05:09:35;;;;;;;;;;;16.70;51.50;;;;;;5073144;28;19920;-66
2023/03/19 05:12:00;;;;;;;;;;;16.70;51.60;;;;;;5093508;28;19959;-66
2023/03/19 05:14:26;;;;;;;;;;;16.70;51.60;;;;;;5093340;28;20013;-66
2023/03/19 05:16:51;;;;;;;;;;;16.70;51.60;;;;;;5075410;28;19927;-65
2023/03/19 05:19:17;;;;;;;;;;;16.80;51.60;;;;;;5093629;28;19924;-66
2023/03/19 05:21:46;;;;;;;;;;;16.80;51.70;;;;;;5093515;28;19927;-66
2023/03/19 05:24:11;;;;;;;;;;;16.80;51.60;;;;;;5092678;28;19920;-66
2023/03/19 05:26:37;;;;;;;;;;;16.70;51.60;;;;;;5074891;28;19994;-66
2023/03/19 05:29:03;;;;;;;;;;;16.60;51.50;;;;;;5093411;28;19924;-66
2023/03/19 05:31:29;;;;;;;;;;;16.80;51.60;;;;;;5075344;28;20282;-66
2023/03/19 05:33:55;;;;;;;;;;;16.70;51.60;;;;;;5075134;28;19920;-66
2023/03/19 05:36:21;;;;;;;;;;;16.70;51.60;;;;;;5093604;28;20274;-66
2023/03/19 05:38:47;;;;;;;;;;;16.70;51.60;;;;;;5074226;28;19920;-66
2023/03/19 05:41:12;;;;;;;;;;;16.70;51.60;;;;;;5093257;28;19920;-66
2023/03/19 05:43:38;;;;;;;;;;;16.80;51.70;;;;;;5075051;28;19920;-66
2023/03/19 05:46:03;;;;;;;;;;;16.70;51.60;;;;;;5092798;28;20432;-66
2023/03/19 05:48:29;;;;;;;;;;;16.70;51.60;;;;;;5092810;28;20005;-66
2023/03/19 05:50:55;;;;;;;;;;;16.70;51.60;;;;;;5075139;28;20256;-66
2023/03/19 05:53:21;;;;;;;;;;;16.70;51.60;;;;;;5073987;28;20094;-66
2023/03/19 05:55:47;;;;;;;;;;;16.70;51.60;;;;;;5074782;28;19920;-66
2023/03/19 05:58:12;;;;;;;;;;;16.70;51.60;;;;;;5074455;28;19973;-66
2023/03/19 06:00:41;;;;;;;;;;;16.60;51.50;;;;;;5092672;28;19920;-66
2023/03/19 06:03:07;;;;;;;;;;;16.60;51.60;;;;;;5074588;28;19920;-66
2023/03/19 06:05:32;;;;;;;;;;;16.70;51.60;;;;;;5074398;28;19928;-67
2023/03/19 06:07:58;;;;;;;;;;;16.70;51.60;;;;;;5073765;28;20026;-66
2023/03/19 06:10:23;;;;;;;;;;;16.60;51.50;;;;;;5074024;28;20367;-66
2023/03/19 06:12:49;;;;;;;;;;;16.70;51.60;;;;;;5074649;28;19924;-66
2023/03/19 06:15:14;;;;;;;;;;;16.60;51.60;;;;;;5074287;28;19927;-66
2023/03/19 06:17:40;;;;;;;;;;;16.60;51.50;;;;;;5074683;28;20049;-66
2023/03/19 06:20:05;;;;;;;;;;;16.60;51.50;;;;;;5092299;28;19920;-66
2023/03/19 06:22:31;;;;;;;;;;;16.60;51.50;;;;;;5073857;28;19927;-66
2023/03/19 06:24:56;;;;;;;;;;;16.60;52.20;;;;;;5092087;28;19924;-66
2023/03/19 06:27:22;;;;;;;;;;;16.60;51.50;;;;;;5074037;28;19924;-66
2023/03/19 06:29:47;;;;;;;;;;;16.60;51.50;;;;;;5074088;28;19920;-66
2023/03/19 06:32:13;;;;;;;;;;;16.60;51.50;;;;;;5074197;28;19972;-66
2023/03/19 06:34:38;;;;;;;;;;;16.60;51.50;;;;;;5092269;28;19924;-66
2023/03/19 06:37:04;;;;;;;;;;;16.60;51.50;;;;;;5092228;28;20002;-66
2023/03/19 06:39:33;;;;;;;;;;;16.60;51.50;;;;;;5091411;28;19924;-66
2023/03/19 06:42:02;;;;;;;;;;;16.60;51.50;;;;;;5073946;28;19920;-66
2023/03/19 06:44:28;;;;;;;;;;;16.60;51.60;;;;;;5092092;28;19926;-66
2023/03/19 06:46:54;;;;;;;;;;;16.60;51.60;;;;;;5073822;28;20375;-66
2023/03/19 06:49:20;;;;;;;;;;;16.60;51.50;;;;;;5074320;28;19969;-66
2023/03/19 06:51:46;;;;;;;;;;;16.60;51.50;;;;;;5092125;28;19920;-66
2023/03/19 06:54:11;;;;;;;;;;;16.60;51.50;;;;;;5074079;28;19920;-66
2023/03/19 06:56:37;;;;;;;;;;;16.60;51.60;;;;;;5054208;28;20368;-66
2023/03/19 06:59:02;;;;;;;;;;;16.60;51.50;;;;;;5071797;28;19931;-66
2023/03/19 07:01:31;;;;;;;;;;;16.50;51.50;;;;;;5070903;28;19921;-66
2023/03/19 07:03:57;;;;;;;;;;;16.50;51.50;;;;;;5054091;28;19967;-66
2023/03/19 07:06:22;;;;;;;;;;;16.50;51.50;;;;;;5054075;28;20374;-66
2023/03/19 07:08:48;;;;;;;;;;;16.60;51.60;;;;;;5069709;28;20434;-67
2023/03/19 07:11:14;;;;;;;;;;;16.50;51.50;;;;;;5053624;28;19960;-66
2023/03/19 07:13:40;;;;;;;;;;;16.50;51.50;;;;;;5054397;28;19921;-66
2023/03/19 07:16:06;;;;;;;;;;;16.50;51.50;;;;;;5074489;28;19927;-66
2023/03/19 07:18:34;;;;;;;;;;;16.50;51.50;;;;;;5075545;28;19920;-66
2023/03/19 07:20:59;;;;;;;;;;;16.50;51.60;;;;;;5057809;28;20386;-66
2023/03/19 07:23:25;;;;;;;;;;;16.50;51.60;;;;;;5073480;28;20387;-66
2023/03/19 07:25:50;;;;;;;;;;;16.50;51.50;;;;;;5075380;28;19927;-66
2023/03/19 07:28:16;;;;;;;;;;;16.50;51.50;;;;;;5057289;28;20375;-66
2023/03/19 07:30:41;;;;;;;;;;;16.50;51.60;;;;;;5074273;28;19920;-66
2023/03/19 07:33:07;;;;;;;;;;;16.50;51.60;;;;;;5057229;28;20287;-66
2023/03/19 07:35:33;;;;;;;;;;;16.50;51.50;;;;;;5086686;28;19924;-66
2023/03/19 07:37:59;;;;;;;;;;;16.50;51.60;;;;;;5076410;28;20388;-66
2023/03/19 07:40:24;;;;;;;;;;;16.50;51.60;;;;;;5076997;28;19927;-66
2023/03/19 07:42:50;;;;;;;;;;;16.50;51.60;;;;;;5077061;28;19955;-66
2023/03/19 07:45:16;;;;;;;;;;;16.50;51.60;;;;;;5077416;28;20292;-66
2023/03/19 07:47:41;;;;;;;;;;;16.50;51.60;;;;;;5077092;28;19924;-66
2023/03/19 07:50:07;;;;;;;;;;;16.50;51.60;;;;;;5095309;28;19967;-66
2023/03/19 07:52:33;;;;;;;;;;;16.50;51.60;;;;;;5076253;28;20345;-66
2023/03/19 07:54:58;;;;;;;;;;;16.50;51.70;;;;;;5076800;28;19924;-66
2023/03/19 07:57:24;;;;;;;;;;;16.50;51.60;;;;;;5095032;28;19943;-65
2023/03/19 07:59:50;;;;;;;;;;;16.40;51.60;;;;;;5077088;28;19919;-67
2023/03/19 08:02:16;;;;;;;;;;;16.50;51.60;;;;;;5076837;28;20376;-66
2023/03/19 08:04:42;;;;;;;;;;;16.50;51.60;;;;;;5077118;28;20387;-66
2023/03/19 08:07:11;;;;;;;;;;;16.50;51.60;;;;;;5076738;28;19971;-66
2023/03/19 08:09:37;;;;;;;;;;;16.40;51.60;;;;;;5093974;28;19920;-66
2023/03/19 08:12:03;;;;;;;;;;;16.40;51.60;;;;;;5076702;28;20287;-66
2023/03/19 08:14:28;;;;;;;;;;;16.50;51.60;;;;;;5076515;28;19920;-66
2023/03/19 08:16:54;;;;;;;;;;;16.50;51.60;;;;;;5094971;28;19935;-66
2023/03/19 08:19:19;;;;;;;;;;;16.50;51.60;;;;;;5094574;28;19920;-66
2023/03/19 08:21:45;;;;;;;;;;;16.50;51.60;;;;;;5076699;28;19970;-66
2023/03/19 08:24:10;;;;;;;;;;;16.50;51.60;;;;;;5093748;28;19920;-66
2023/03/19 08:26:36;;;;;;;;;;;16.50;51.60;;;;;;5075969;28;20003;-66
2023/03/19 08:29:03;;;;;;;;;;;16.40;51.60;;;;;;5076507;28;19920;-66
2023/03/19 08:31:29;;;;;;;;;;;16.50;51.70;;;;;;5076295;28;19927;-66
2023/03/19 08:33:54;;;;;;;;;;;16.50;51.60;;;;;;5094441;28;19920;-66
2023/03/19 08:36:20;;;;;;;;;;;16.50;51.60;;;;;;5094259;28;19927;-66
2023/03/19 08:38:45;;;;;;;;;;;16.50;51.70;;;;;;5093731;28;19920;-66
2023/03/19 08:41:11;;;;;;;;;;;16.40;51.60;;;;;;5094028;28;19920;-66
2023/03/19 08:43:37;;;;;;;;;;;16.50;51.70;;;;;;5094186;28;19965;-66
2023/03/19 08:46:05;;;;;;;;;;;16.50;51.70;;;;;;5093928;28;20325;-66
2023/03/19 08:48:31;;;;;;;;;;;16.40;51.60;;;;;;5075780;28;20006;-66
2023/03/19 08:50:58;;;;;;;;;;;16.40;51.60;;;;;;5076040;28;19959;-66
2023/03/19 08:53:24;;;;;;;;;;;16.50;51.70;;;;;;5082504;28;20395;-66
2023/03/19 08:55:51;;;;;;;;;;;16.50;51.70;;;;;;5072503;28;19920;-66
2023/03/19 08:58:17;;;;;;;;;;;16.40;51.60;;;;;;5073588;28;19920;-66
2023/03/19 09:00:42;;;;;;;;;;;16.50;51.60;;;;;;5055509;28;20394;-66
2023/03/19 09:03:08;;;;;;;;;;;16.50;51.60;;;;;;5073710;28;19921;-66
2023/03/19 09:05:34;;;;;;;;;;;16.50;51.60;;;;;;5055822;28;19927;-67
2023/03/19 09:08:00;;;;;;;;;;;16.50;51.70;;;;;;5061112;28;19958;-66
2023/03/19 09:10:26;;;;;;;;;;;16.50;51.60;;;;;;5075670;28;19920;-66
2023/03/19 09:12:51;;;;;;;;;;;16.50;51.60;;;;;;5075578;28;19929;-66
2023/03/19 09:15:17;;;;;;;;;;;16.40;51.50;;;;;;5075508;28;19920;-66
2023/03/19 09:17:42;;;;;;;;;;;16.50;51.60;;;;;;5075357;28;20383;-66
2023/03/19 09:20:09;;;;;;;;;;;16.50;51.50;;;;;;5075610;28;19963;-66
2023/03/19 09:22:34;;;;;;;;;;;16.50;51.50;;;;;;5074747;28;19987;-66
2023/03/19 09:25:00;;;;;;;;;;;16.50;51.50;;;;;;5074760;28;20287;-66
2023/03/19 09:27:26;;;;;;;;;;;16.50;51.50;;;;;;5074726;28;19931;-66
2023/03/19 09:29:51;;;;;;;;;;;16.50;51.50;;;;;;5075135;28;20044;-66
2023/03/19 09:32:17;;;;;;;;;;;16.50;51.50;;;;;;5075271;28;19924;-66
2023/03/19 09:34:42;;;;;;;;;;;16.50;51.50;;;;;;5074959;28;20371;-66
2023/03/19 09:37:10;;;;;;;;;;;16.50;51.50;;;;;;5092648;28;19920;-66
2023/03/19 09:39:36;;;;;;;;;;;16.50;51.40;;;;;;5074211;28;20395;-66
2023/03/19 09:42:09;;;;;;;;;;;16.50;51.40;;;;;;5075093;28;19920;-66
2023/03/19 09:44:38;;;;;;;;;;;16.50;51.40;;;;;;5092986;28;19920;-66
2023/03/19 09:47:24;;;;;;;;;;;16.50;51.40;;;;;;5074770;28;19931;-66
2023/03/19 09:49:54;;;;;;;;;;;16.50;51.40;;;;;;5074624;28;19927;-66
2023/03/19 09:52:40;;;;;;;;;;;16.50;51.40;;;;;;5092137;28;19927;-66
2023/03/19 09:55:25;;;;;;;;;;;16.40;51.40;;;;;;5074726;28;19920;-66
2023/03/19 09:57:54;;;;;;;;;;;16.50;51.40;;;;;;5092500;28;19920;-66
2023/03/19 10:08:52;;;;;;;;;;;16.40;51.30;;;;;;5117500;27;20362;-66
2023/03/19 10:11:37;;;;;;;;;;;16.60;51.40;;;;;;5110192;28;20299;-66
2023/03/19 10:16:51;;;;;;;;;;;16.50;51.40;;;;;;5110330;27;19918;-66
2023/03/19 10:19:20;;;;;;;;;;;16.50;51.40;;;;;;5109203;28;19927;-66
2023/03/19 10:21:50;;;;;;;;;;;16.50;51.50;;;;;;5108800;28;19920;-66
2023/03/19 10:24:20;;;;;;;;;;;16.50;51.40;;;;;;5108069;28;19927;-66
2023/03/19 10:26:46;;;;;;;;;;;16.50;51.40;;;;;;5108905;28;19927;-66
2023/03/19 10:29:18;;;;;;;;;;;16.50;51.40;;;;;;5109051;28;20372;-66
2023/03/19 10:34:30;;;;;;;;;;;16.50;51.40;;;;;;5089870;28;19913;-66
2023/03/19 10:36:59;;;;;;;;;;;16.50;51.40;;;;;;5089132;28;20268;-66
2023/03/19 10:39:24;;;;;;;;;;;16.50;51.50;;;;;;5087969;28;19920;-66
2023/03/19 10:41:59;;;;;;;;;;;16.50;51.40;;;;;;5088428;28;19924;-67
2023/03/19 10:47:10;;;;;;;;;;;16.50;51.40;;;;;;5110190;27;19918;-66
2023/03/19 10:49:35;;;;;;;;;;;16.50;51.40;;;;;;5108876;28;19967;-67
2023/03/19 10:52:01;;;;;;;;;;;16.50;51.40;;;;;;5110184;28;19920;-66
2023/03/19 10:54:30;;;;;;;;;;;16.50;51.40;;;;;;5108361;28;19924;-66
2023/03/19 10:56:57;;;;;;;;;;;16.50;51.40;;;;;;5109143;28;19927;-66
2023/03/19 10:59:30;;;;;;;;;;;16.50;51.50;;;;;;5109988;28;19943;-66
2023/03/19 11:01:58;;;;;;;;;;;16.50;51.50;;;;;;5108535;28;19920;-66
2023/03/19 11:04:25;;;;;;;;;;;16.50;51.40;;;;;;5108561;28;19926;-66
2023/03/19 11:06:52;;;;;;;;;;;16.50;51.40;;;;;;5109967;28;20332;-66
2023/03/19 11:09:23;;;;;;;;;;;16.50;51.40;;;;;;5109143;28;19920;-66
2023/03/19 11:11:50;;;;;;;;;;;16.50;51.50;;;;;;5108635;28;19927;-67
2023/03/19 11:14:18;;;;;;;;;;;16.50;51.50;;;;;;5108545;28;19928;-66
2023/03/19 11:19:28;;;;;;;;;;;16.50;51.50;;;;;;5089915;28;19913;-66
2023/03/19 11:21:59;;;;;;;;;;;16.50;51.40;;;;;;5088597;28;19928;-67
2023/03/19 11:24:25;;;;;;;;;;;16.50;51.50;;;;;;5088125;28;19921;-66
2023/03/19 11:26:54;;;;;;;;;;;16.50;51.50;;;;;;5088407;28;19967;-66
2023/03/19 11:29:20;;;;;;;;;;;16.50;51.50;;;;;;5088867;28;19942;-66
2023/03/19 11:31:51;;;;;;;;;;;16.50;51.50;;;;;;5088554;28;19974;-66
2023/03/19 11:39:49;;;;;;;;;;;16.40;51.40;;;;;;5089221;28;19912;-66
2023/03/19 11:42:35;;;;;;;;;;;16.50;51.50;;;;;;5088451;28;19920;-66
2023/03/19 11:47:58;;;;;;;;;;;16.60;51.60;;;;;;5090308;28;20271;-66
2023/03/19 11:50:26;;;;;;;;;;;16.50;51.50;;;;;;5088491;28;20486;-66
2023/03/19 11:55:36;;;;;;;;;;;16.50;51.50;;;;;;5089780;28;19912;-67
2023/03/19 11:58:11;;;;;;;;;;;16.40;51.50;;;;;;5088545;28;20375;-66
2023/03/19 12:03:30;;;;;;;;;;;16.50;51.60;;;;;;5110242;27;19918;-66
2023/03/19 12:05:59;;;;;;;;;;;16.40;51.50;;;;;;5110424;28;19920;-66
2023/03/19 12:14:07;;;;;;;;;;;16.50;51.60;;;;;;5110176;27;19912;-66
2023/03/19 12:16:54;;;;;;;;;;;16.50;51.60;;;;;;5108630;28;19953;-66
2023/03/19 12:19:40;;;;;;;;;;;16.50;51.70;;;;;;5109094;28;19955;-66
2023/03/19 12:22:10;;;;;;;;;;;16.50;51.70;;;;;;5109910;28;20279;-66
2023/03/19 12:24:56;;;;;;;;;;;16.50;51.70;;;;;;5108285;28;19927;-66
2023/03/19 12:27:41;;;;;;;;;;;16.50;51.60;;;;;;5108899;28;19923;-66
2023/03/19 12:35:33;;;;;;;;;;;16.50;51.60;;;;;;5110210;27;19919;-66
2023/03/19 12:38:02;;;;;;;;;;;16.50;51.70;;;;;;5108371;28;19920;-66
2023/03/19 12:40:32;;;;;;;;;;;16.50;51.70;;;;;;5109062;28;19973;-66
2023/03/19 12:42:58;;;;;;;;;;;16.50;51.70;;;;;;5109344;28;19971;-66
2023/03/19 12:45:31;;;;;;;;;;;16.50;51.70;;;;;;5108733;28;19920;-67
2023/03/19 12:47:59;;;;;;;;;;;16.50;51.70;;;;;;5109012;28;19927;-67
2023/03/19 12:50:26;;;;;;;;;;;16.50;51.70;;;;;;5110298;28;20364;-66
2023/03/19 12:53:00;;;;;;;;;;;16.50;51.60;;;;;;5108024;28;20436;-66
2023/03/19 12:55:35;;;;;;;;;;;16.50;51.60;;;;;;5108787;28;19968;-67
2023/03/19 12:58:05;;;;;;;;;;;16.50;51.60;;;;;;5108425;28;19920;-67
2023/03/19 13:00:34;;;;;;;;;;;16.50;51.60;;;;;;5110126;28;19973;-67
2023/03/19 13:03:17;;;;;;;;;;;16.50;51.60;;;;;;5108793;28;19927;-66
2023/03/19 13:08:32;;;;;;;;;;;16.50;51.70;;;;;;5089179;28;19912;-67
2023/03/19 13:10:58;;;;;;;;;;;16.50;51.60;;;;;;5088681;28;19927;-67
2023/03/19 13:13:46;;;;;;;;;;;16.50;51.70;;;;;;5088775;28;19920;-67
2023/03/19 13:21:41;;;;;;;;;;;16.50;51.70;;;;;;5110254;27;19919;-67
2023/03/19 13:26:55;;;;;;;;;;;16.50;51.70;;;;;;5130756;27;19912;-67
2023/03/19 13:29:22;;;;;;;;;;;16.50;51.70;;;;;;5112179;28;19920;-67
2023/03/19 13:31:48;;;;;;;;;;;16.50;51.70;;;;;;5112607;28;19920;-67
2023/03/19 13:39:41;;;;;;;;;;;16.50;51.80;;;;;;5109527;27;19922;-66
2023/03/19 13:42:09;;;;;;;;;;;16.50;51.80;;;;;;5108884;28;19920;-66
2023/03/19 13:44:55;;;;;;;;;;;16.50;51.80;;;;;;5110134;28;19927;-67
2023/03/19 13:52:47;;;;;;;;;;;16.50;51.80;;;;;;5109656;27;19918;-67
2023/03/19 13:55:31;;;;;;;;;;;16.50;51.80;;;;;;5108845;28;19926;-66
2023/03/19 13:58:11;;;;;;;;;;;16.50;51.90;;;;;;5108891;28;19928;-67
2023/03/19 14:03:28;;;;;;;;;;;16.50;51.90;;;;;;5131297;27;20018;-67
2023/03/19 14:05:55;;;;;;;;;;;16.50;51.90;;;;;;5129249;28;19994;-65
2023/03/19 14:08:26;;;;;;;;;;;16.50;51.90;;;;;;5119750;28;19920;-64
2023/03/19 14:10:54;;;;;;;;;;;16.50;52.00;;;;;;5109958;28;20331;-65
2023/03/19 14:13:28;;;;;;;;;;;16.50;52.00;;;;;;5109065;28;19942;-64
2023/03/19 14:15:59;;;;;;;;;;;16.50;52.00;;;;;;5109009;28;20001;-65
2023/03/19 14:18:24;;;;;;;;;;;16.50;52.10;;;;;;5108744;28;20406;-65
2023/03/19 14:20:57;;;;;;;;;;;16.50;52.10;;;;;;5108843;28;19920;-65
2023/03/19 14:23:24;;;;;;;;;;;16.50;52.10;;;;;;5108235;28;19924;-65
2023/03/19 14:26:10;;;;;;;;;;;16.50;52.10;;;;;;5109556;28;20331;-65
2023/03/19 14:28:55;;;;;;;;;;;16.50;52.10;;;;;;5109557;28;19920;-65
2023/03/19 14:36:56;;;;;;;;;;;16.50;52.10;;;;;;5110610;27;20387;-66
2023/03/19 14:39:26;;;;;;;;;;;16.50;52.10;;;;;;5108346;28;19970;-66
2023/03/19 14:41:57;;;;;;;;;;;16.50;52.10;;;;;;5109146;28;20282;-66
2023/03/19 14:44:30;;;;;;;;;;;16.50;52.10;;;;;;5109209;28;19920;-64
2023/03/19 14:47:13;;;;;;;;;;;16.50;52.20;;;;;;5109996;28;20291;-66
2023/03/19 14:49:59;;;;;;;;;;;16.50;52.20;;;;;;5110021;28;19920;-65
2023/03/19 14:52:27;;;;;;;;;;;16.50;52.20;;;;;;5108169;28;20003;-65
2023/03/19 14:54:57;;;;;;;;;;;16.60;52.20;;;;;;5108394;28;19930;-69
2023/03/19 14:57:27;;;;;;;;;;;16.50;52.20;;;;;;5108823;28;19920;-66
2023/03/19 14:59:56;;;;;;;;;;;16.50;52.20;;;;;;5108861;28;19974;-66
2023/03/19 15:02:34;;;;;;;;;;;16.60;52.30;;;;;;5108836;28;19920;-65
2023/03/19 15:05:00;;;;;;;;;;;16.60;52.20;;;;;;5108496;28;19927;-67
2023/03/19 15:07:29;;;;;;;;;;;16.60;52.30;;;;;;5108084;28;19920;-66
2023/03/19 15:09:58;;;;;;;;;;;16.50;52.30;;;;;;5108079;28;19920;-65
2023/03/19 15:12:37;;;;;;;;;;;16.50;52.20;;;;;;5108219;28;19950;-65
2023/03/19 15:18:00;;;;;;;;;;;16.60;52.40;;;;;;5110118;27;19918;-66
2023/03/19 15:20:28;;;;;;;;;;;16.50;53.00;;;;;;5109321;28;19920;-66
2023/03/19 15:22:54;;;;;;;;;;;16.60;52.40;;;;;;5108373;28;19920;-67
2023/03/19 15:25:20;;;;;;;;;;;16.60;52.40;;;;;;5109989;28;19931;-67
2023/03/19 15:28:02;;;;;;;;;;;16.50;52.40;;;;;;5110276;28;19920;-67
2023/03/19 15:30:27;;;;;;;;;;;16.50;52.30;;;;;;5109158;28;19919;-67
2023/03/19 15:32:53;;;;;;;;;;;16.60;52.40;;;;;;5109883;28;20371;-67
2023/03/19 15:35:23;;;;;;;;;;;16.50;52.30;;;;;;5108115;28;19977;-67
2023/03/19 15:37:50;;;;;;;;;;;16.50;52.40;;;;;;5107636;28;19924;-67
2023/03/19 15:40:18;;;;;;;;;;;16.50;52.30;;;;;;5109740;28;20283;-67